Lihue, HI (96766)

10:45 PM HST on August 28, 2015 (GMT -1000)
Lihue | | Change Station
CLOSE
Current Station
Personal Weather Station
Location: Lihue, HI
Elevation: 342 ft
Nearby Weather Stations

Elev 342 ft 21.97 °N, 159.40 °W | Updated 25 minutes ago

Mostly Cloudy
Mostly Cloudy
77.4 °F
Feels Like 79 °F
N
1.3
Wind Variable Wind from NE
Gusts 2.7 mph

Today
High -- | Low -- °F
--% Chance of Precip.
Yesterday
High -- | Low -- °F
Precip. -- in
6:19 AM 6:57 PM
Full, 100% visible
Pressure 29.93 in
Visibility 10.0 miles
Clouds Scattered Clouds 1900 ft
Mostly Cloudy 3600 ft
Heat Index 79 °F
Dew Point 76 °F
Humidity 95%
Rainfall Not available.
Snow Depth Not available.
UV 0 out of 12
Pollen Not available.
Air Quality Not available.
Flu Activity Not available.
METAR PHLI 290753Z AUTO 05009KT 10SM SCT019 BKN036 28/27 A2993 RMK AO2 SLP133 T02780272 TSNO $
Pressure 29.93 in
Visibility 10.0 miles
Clouds Scattered Clouds 1900 ft
Mostly Cloudy 3600 ft
Heat Index 79 °F
Dew Point 76 °F
Humidity 95%
Rainfall Not available.
Snow Depth Not available.
UV 0 out of 12
Pollen Not available.
Air Quality Not available.
Flu Activity Not available.
METAR PHLI 290753Z AUTO 05009KT 10SM SCT019 BKN036 28/27 A2993 RMK AO2 SLP133 T02780272 TSNO $
The busy hurricane season continues as Hurricane Ignacio may threaten The Big Island Monday. Ignacio is expected to strengthen into a Category 2 hurricane later today, before possibly weakening to a Category 1 storm Monday. The most likely scenario is that storm will pass to the north of Hawaii, there is enough difference is guidance to suggest that residents should prepare for the storm.

10-Day Weather Forecast

×

Almanac

Astronomy

Aug. 28, 2015 Rise Set
Actual Time
Civil Twilight
Nautical Twilight
Astronomical Twilight
Moon
Length of Visible Light
Length of Day
Tomorrow will be .
, % of the Moon is Illuminated

Today's Extremes

State Highs State Lows

Community

WunderPhotos

Upload Photos

1,850,634 photos uploaded!

WunderBlogs® & News

Nearby

Air Quality

  Air Quality AQ Index Pollutant
Not available.

Snow Depth

Station Depth Elevation

Earthquake Activity

City Distance Mag. Time & Date
Minimum magnitude displayed is 2.5.

Coastal Water Temperatures

Place Temperature

Stations

Nearby Weather Stations

Station Location Temp. Windchill Dew Point Humidity Wind Precip. Elev Updated Type